createdAt,value
2017-03-22T00:00:43.405Z,6.30
2017-03-22T00:01:41.640Z,6.30
2017-03-22T00:02:39.959Z,6.20
2017-03-22T00:03:38.962Z,6.20
2017-03-22T00:04:37.233Z,6.20
2017-03-22T00:05:36.637Z,6.20
2017-03-22T00:06:34.989Z,6.20
2017-03-22T00:07:33.272Z,6.20
2017-03-22T00:08:31.882Z,6.20
2017-03-22T00:09:30.135Z,6.20
2017-03-22T00:10:28.421Z,6.20
2017-03-22T00:11:26.688Z,6.20
2017-03-22T00:12:24.961Z,6.30
2017-03-22T00:13:23.211Z,6.30
2017-03-22T00:14:22.290Z,6.20
2017-03-22T00:15:20.548Z,6.30
2017-03-22T00:16:18.861Z,6.30
2017-03-22T00:17:17.105Z,6.20
2017-03-22T00:18:15.393Z,6.20
2017-03-22T00:19:13.654Z,6.20
2017-03-22T00:20:11.938Z,6.20
2017-03-22T00:21:10.228Z,6.20
2017-03-22T00:22:08.557Z,6.20
2017-03-22T00:23:06.818Z,6.20
2017-03-22T00:24:05.137Z,6.20
2017-03-22T00:25:03.427Z,6.20
2017-03-22T00:26:01.701Z,6.20
2017-03-22T00:26:59.989Z,6.30
2017-03-22T00:27:58.234Z,6.20
2017-03-22T00:28:56.534Z,6.20
2017-03-22T00:29:54.817Z,6.20
2017-03-22T00:30:53.108Z,6.20
2017-03-22T00:31:52.417Z,6.20
2017-03-22T00:32:50.724Z,6.20
2017-03-22T00:33:48.980Z,6.20
2017-03-22T00:34:47.245Z,6.30
2017-03-22T00:35:45.500Z,6.20
2017-03-22T00:36:43.769Z,6.30
2017-03-22T00:37:42.036Z,6.30
2017-03-22T00:38:40.300Z,6.30
2017-03-22T00:39:38.568Z,6.30
2017-03-22T00:40:36.996Z,6.20
2017-03-22T00:41:35.272Z,6.30
2017-03-22T00:42:33.578Z,6.30
2017-03-22T00:43:32.225Z,6.30
2017-03-22T00:44:30.821Z,6.30
2017-03-22T00:45:29.064Z,6.20
2017-03-22T00:46:27.311Z,6.30
2017-03-22T00:47:25.559Z,6.30
2017-03-22T00:48:23.849Z,6.30
2017-03-22T00:49:22.105Z,6.30
2017-03-22T00:50:20.377Z,6.30
2017-03-22T00:51:18.617Z,6.20
2017-03-22T00:52:16.914Z,6.30
2017-03-22T00:53:15.909Z,6.20
2017-03-22T00:54:14.906Z,6.30
2017-03-22T00:55:13.233Z,6.30
2017-03-22T00:56:11.513Z,6.30
2017-03-22T00:57:10.520Z,6.30
2017-03-22T00:58:08.786Z,6.30
2017-03-22T00:59:07.050Z,6.30
2017-03-22T01:00:05.381Z,6.30
2017-03-22T01:01:03.997Z,6.30
2017-03-22T01:02:02.277Z,6.30
2017-03-22T01:03:00.577Z,6.30
2017-03-22T01:03:58.882Z,6.30
2017-03-22T01:04:57.153Z,6.30
2017-03-22T01:05:55.465Z,6.30
2017-03-22T01:06:54.096Z,6.30
2017-03-22T01:07:52.362Z,6.30
2017-03-22T01:08:50.647Z,6.30
2017-03-22T01:09:48.976Z,6.30
2017-03-22T01:10:47.261Z,6.30
2017-03-22T01:11:45.541Z,6.30
2017-03-22T01:12:43.814Z,6.30
2017-03-22T01:13:42.064Z,6.30
2017-03-22T01:14:40.337Z,6.30
2017-03-22T01:15:38.589Z,6.30
2017-03-22T01:16:36.843Z,6.30
2017-03-22T01:17:35.277Z,6.20
2017-03-22T01:18:33.801Z,6.20
2017-03-22T01:19:32.712Z,6.20
2017-03-22T01:20:30.989Z,6.20
2017-03-22T01:21:29.246Z,6.20
2017-03-22T01:22:27.508Z,6.20
2017-03-22T01:23:25.784Z,6.20
2017-03-22T01:24:24.061Z,6.20
2017-03-22T01:25:22.309Z,6.20
2017-03-22T01:26:20.568Z,6.20
2017-03-22T01:27:18.841Z,6.20
2017-03-22T01:28:17.109Z,6.20
2017-03-22T01:29:16.125Z,6.20
2017-03-22T01:30:14.406Z,6.20
2017-03-22T01:31:13.469Z,6.20
2017-03-22T01:32:11.733Z,6.20
2017-03-22T01:33:10.006Z,6.20
2017-03-22T01:34:08.272Z,6.20
2017-03-22T01:35:06.582Z,6.20
2017-03-22T01:36:05.110Z,6.20
2017-03-22T01:37:03.421Z,6.20
2017-03-22T01:38:00.910Z,6.20
2017-03-22T01:38:59.217Z,6.20
2017-03-22T01:39:57.473Z,6.20
2017-03-22T01:40:55.748Z,6.20
2017-03-22T01:41:54.032Z,6.20
2017-03-22T01:42:52.297Z,6.20
2017-03-22T01:43:50.584Z,6.20
2017-03-22T01:44:48.829Z,6.20
2017-03-22T01:45:47.118Z,6.20
2017-03-22T01:46:45.361Z,6.20
2017-03-22T01:47:43.658Z,6.20
2017-03-22T01:48:41.958Z,6.20
2017-03-22T01:49:40.203Z,6.20
2017-03-22T01:50:38.449Z,6.20
2017-03-22T01:51:36.693Z,6.20
2017-03-22T01:52:34.985Z,6.20
2017-03-22T01:53:33.531Z,6.20
2017-03-22T01:54:32.508Z,6.20
2017-03-22T01:55:31.492Z,6.20
2017-03-22T01:56:29.758Z,6.20
2017-03-22T01:57:28.737Z,6.20
2017-03-22T01:58:26.989Z,6.20
2017-03-22T01:59:26.026Z,6.20
2017-03-22T02:00:24.316Z,6.20
2017-03-22T02:01:23.368Z,6.20
2017-03-22T02:02:21.634Z,6.20
2017-03-22T02:03:19.894Z,6.20
2017-03-22T02:04:18.129Z,6.20
2017-03-22T02:05:16.429Z,6.20
2017-03-22T02:06:14.677Z,6.20
2017-03-22T02:07:12.924Z,6.20
2017-03-22T02:08:11.946Z,6.20
2017-03-22T02:09:10.239Z,6.20
2017-03-22T02:10:09.246Z,6.20
2017-03-22T02:11:07.957Z,6.20
2017-03-22T02:12:06.204Z,6.20
2017-03-22T02:13:04.514Z,6.20
2017-03-22T02:14:02.796Z,6.20
2017-03-22T02:15:01.081Z,6.20
2017-03-22T02:15:59.316Z,6.10
2017-03-22T02:16:57.630Z,6.10
2017-03-22T02:17:56.613Z,6.10
2017-03-22T02:18:54.877Z,6.10
2017-03-22T02:19:53.107Z,6.10
2017-03-22T02:20:51.453Z,6.10
2017-03-22T02:21:49.705Z,6.10
2017-03-22T02:22:47.986Z,6.00
2017-03-22T02:23:46.266Z,6.00
2017-03-22T02:24:44.585Z,6.00
2017-03-22T02:25:42.845Z,6.00
2017-03-22T02:26:41.081Z,6.00
2017-03-22T02:27:39.329Z,6.00
2017-03-22T02:28:37.834Z,6.00
2017-03-22T02:29:36.121Z,6.00
2017-03-22T02:30:34.392Z,6.00
2017-03-22T02:31:32.640Z,6.00
2017-03-22T02:32:31.374Z,6.00
2017-03-22T02:33:29.652Z,6.00
2017-03-22T02:34:27.892Z,6.00
2017-03-22T02:35:26.144Z,6.00
2017-03-22T02:36:24.417Z,6.00
2017-03-22T02:37:22.682Z,6.00
2017-03-22T02:38:20.945Z,6.00
2017-03-22T02:39:19.222Z,6.00
2017-03-22T02:40:17.489Z,6.00
2017-03-22T02:41:15.753Z,6.00
2017-03-22T02:42:14.009Z,6.00
2017-03-22T02:43:12.278Z,6.00
2017-03-22T02:44:10.567Z,6.00
2017-03-22T02:45:08.825Z,6.00
2017-03-22T02:46:07.381Z,6.00
2017-03-22T02:47:05.660Z,6.00
2017-03-22T02:48:03.889Z,6.00
2017-03-22T02:49:02.152Z,6.00
2017-03-22T02:50:01.170Z,6.00
2017-03-22T02:50:59.436Z,6.10
2017-03-22T02:51:57.735Z,6.10
2017-03-22T02:52:56.013Z,6.10
2017-03-22T02:53:54.285Z,6.10
2017-03-22T02:54:52.555Z,6.10
2017-03-22T02:55:51.568Z,6.00
2017-03-22T02:56:49.820Z,6.00
2017-03-22T02:57:48.097Z,6.00
2017-03-22T02:58:46.357Z,6.00
2017-03-22T02:59:45.387Z,6.00
2017-03-22T03:00:43.626Z,6.00
2017-03-22T03:01:41.968Z,6.00
2017-03-22T03:02:40.235Z,6.00
2017-03-22T03:03:38.823Z,6.00
2017-03-22T03:04:37.115Z,6.00
2017-03-22T03:05:35.382Z,6.00
2017-03-22T03:06:33.681Z,5.90
2017-03-22T03:07:31.953Z,5.90
2017-03-22T03:08:30.246Z,5.90
2017-03-22T03:09:29.276Z,5.90
2017-03-22T03:10:27.529Z,5.90
2017-03-22T03:11:25.768Z,5.90
2017-03-22T03:12:24.077Z,5.80
2017-03-22T03:13:22.361Z,5.80
2017-03-22T03:14:20.609Z,5.80
2017-03-22T03:15:19.150Z,5.80
2017-03-22T03:16:17.409Z,5.80
2017-03-22T03:17:15.661Z,5.80
2017-03-22T03:18:14.050Z,5.80
2017-03-22T03:19:12.303Z,5.80
2017-03-22T03:20:11.285Z,5.70
2017-03-22T03:21:10.286Z,5.70
2017-03-22T03:22:08.559Z,5.70
2017-03-22T03:23:06.808Z,5.70
2017-03-22T03:24:05.061Z,5.70
2017-03-22T03:25:03.357Z,5.70
2017-03-22T03:26:01.598Z,5.70
2017-03-22T03:26:59.858Z,5.70
2017-03-22T03:27:58.117Z,5.70
2017-03-22T03:28:56.362Z,5.70
2017-03-22T03:29:54.621Z,5.70
2017-03-22T03:30:52.843Z,5.70
2017-03-22T03:31:51.077Z,5.80
2017-03-22T03:32:49.364Z,5.80
2017-03-22T03:33:48.458Z,5.80
2017-03-22T03:34:46.692Z,5.80
2017-03-22T03:35:44.953Z,5.80
2017-03-22T03:36:43.205Z,5.90
2017-03-22T03:37:41.454Z,5.90
2017-03-22T03:38:39.728Z,5.90
2017-03-22T03:39:37.994Z,5.90
2017-03-22T03:40:36.264Z,5.90
2017-03-22T03:41:34.632Z,5.90
2017-03-22T03:42:32.917Z,6.00
2017-03-22T03:43:31.218Z,6.00
2017-03-22T03:44:29.494Z,6.00
2017-03-22T03:45:28.882Z,6.00
2017-03-22T03:46:27.125Z,6.00
2017-03-22T03:47:25.465Z,6.00
2017-03-22T03:48:23.709Z,6.00
2017-03-22T03:49:21.954Z,6.10
2017-03-22T03:50:20.221Z,6.10
2017-03-22T03:51:18.457Z,6.10
2017-03-22T03:52:16.705Z,6.10
2017-03-22T03:53:14.966Z,6.10
2017-03-22T03:54:13.230Z,6.10
2017-03-22T03:55:11.509Z,6.10
2017-03-22T03:56:10.516Z,6.10
2017-03-22T03:57:08.748Z,6.20
2017-03-22T03:58:06.985Z,6.20
2017-03-22T03:59:05.225Z,6.20
2017-03-22T04:00:03.464Z,6.20
2017-03-22T04:01:01.708Z,6.20
2017-03-22T04:01:59.970Z,6.20
2017-03-22T04:02:58.205Z,6.20
2017-03-22T04:03:56.461Z,6.20
2017-03-22T04:04:54.722Z,6.20
2017-03-22T04:05:53.065Z,6.20
2017-03-22T04:06:51.346Z,6.20
2017-03-22T04:07:49.590Z,6.20
2017-03-22T04:08:47.903Z,6.20
2017-03-22T04:09:46.138Z,6.20
2017-03-22T04:10:44.712Z,6.20
2017-03-22T04:11:42.949Z,6.20
2017-03-22T04:12:41.202Z,6.20
2017-03-22T04:13:39.446Z,6.20
2017-03-22T04:14:37.700Z,6.20
2017-03-22T04:15:35.940Z,6.20
2017-03-22T04:16:34.176Z,6.20
2017-03-22T04:17:32.434Z,6.20
2017-03-22T04:18:30.688Z,6.20
2017-03-22T04:19:29.689Z,6.20
2017-03-22T04:20:27.948Z,6.20
2017-03-22T04:21:26.224Z,6.20
2017-03-22T04:22:24.497Z,6.20
2017-03-22T04:23:22.746Z,6.20
2017-03-22T04:24:21.047Z,6.20
2017-03-22T04:25:19.330Z,6.20
2017-03-22T04:26:18.333Z,6.20
2017-03-22T04:27:16.578Z,6.20
2017-03-22T04:28:14.818Z,6.20
2017-03-22T04:29:13.010Z,6.20
2017-03-22T04:30:11.226Z,6.20
2017-03-22T04:31:09.485Z,6.20
2017-03-22T04:32:07.745Z,6.20
2017-03-22T04:33:05.983Z,6.20
2017-03-22T04:34:04.228Z,6.20
2017-03-22T04:35:02.446Z,6.20
2017-03-22T04:36:00.672Z,6.20
2017-03-22T04:36:59.639Z,6.20
2017-03-22T04:37:57.865Z,6.20
2017-03-22T04:38:56.865Z,6.20
2017-03-22T04:39:55.082Z,6.20
2017-03-22T04:40:53.319Z,6.20
2017-03-22T04:41:51.548Z,6.20
2017-03-22T04:42:49.782Z,6.20
2017-03-22T04:43:48.057Z,6.20
2017-03-22T04:44:46.280Z,6.20
2017-03-22T04:45:45.308Z,6.20
2017-03-22T04:46:43.529Z,6.20
2017-03-22T04:47:41.776Z,6.20
2017-03-22T04:48:40.007Z,6.20
2017-03-22T04:49:38.233Z,6.20
2017-03-22T04:50:37.170Z,6.20
2017-03-22T04:51:35.385Z,6.10
2017-03-22T04:52:33.621Z,6.20
2017-03-22T04:53:31.846Z,6.10
2017-03-22T04:54:30.076Z,6.10
2017-03-22T04:55:28.301Z,6.10
2017-03-22T04:56:26.517Z,6.10
2017-03-22T04:57:24.752Z,6.10
2017-03-22T04:58:22.969Z,6.10
2017-03-22T04:59:21.210Z,6.10
2017-03-22T05:00:19.441Z,6.10
2017-03-22T05:01:17.695Z,6.10
2017-03-22T05:02:15.923Z,6.10
2017-03-22T05:03:14.142Z,6.10
2017-03-22T05:04:12.386Z,6.10
2017-03-22T05:05:10.598Z,6.10
2017-03-22T05:06:08.832Z,6.10
2017-03-22T05:07:07.046Z,6.10
2017-03-22T05:08:05.252Z,6.10
2017-03-22T05:09:04.042Z,6.10
2017-03-22T05:10:02.265Z,6.20
2017-03-22T05:11:00.502Z,6.10
2017-03-22T05:11:58.736Z,6.20
2017-03-22T05:12:56.930Z,6.10
2017-03-22T05:13:55.146Z,6.20
2017-03-22T05:14:53.370Z,6.10
2017-03-22T05:15:51.553Z,6.10
2017-03-22T05:16:49.761Z,6.20
2017-03-22T05:17:47.978Z,6.20
2017-03-22T05:18:46.201Z,6.20
2017-03-22T05:19:44.411Z,6.20
2017-03-22T05:20:42.635Z,6.20
2017-03-22T05:21:40.860Z,6.10
2017-03-22T05:22:39.076Z,6.20
2017-03-22T05:23:37.337Z,6.20
2017-03-22T05:24:36.300Z,6.20
2017-03-22T05:25:34.764Z,6.20
2017-03-22T05:26:32.994Z,6.10
2017-03-22T05:27:31.197Z,6.20
2017-03-22T05:28:29.477Z,6.20
2017-03-22T05:29:27.734Z,6.20
2017-03-22T05:30:26.796Z,6.20
2017-03-22T05:31:25.041Z,6.20
2017-03-22T05:32:23.272Z,6.20
2017-03-22T05:33:21.575Z,6.20
2017-03-22T05:34:19.832Z,6.20
2017-03-22T05:35:18.104Z,6.20
2017-03-22T05:36:16.368Z,6.20
2017-03-22T05:37:14.598Z,6.20
2017-03-22T05:38:12.893Z,6.20
2017-03-22T05:39:11.149Z,6.20
2017-03-22T05:40:09.437Z,6.20
2017-03-22T05:41:07.701Z,6.20
2017-03-22T05:42:05.942Z,6.20
2017-03-22T05:43:04.169Z,6.20
2017-03-22T05:44:02.415Z,6.20
2017-03-22T05:45:00.669Z,6.30
2017-03-22T05:45:58.961Z,6.30
2017-03-22T05:46:57.238Z,6.30
2017-03-22T05:47:55.514Z,6.30
2017-03-22T05:48:53.757Z,6.30
2017-03-22T05:49:52.037Z,6.30
2017-03-22T05:50:50.265Z,6.40
2017-03-22T05:51:48.540Z,6.30
2017-03-22T05:52:46.799Z,6.40
2017-03-22T05:53:45.061Z,6.40
2017-03-22T05:54:43.379Z,6.40
2017-03-22T05:55:41.616Z,6.40
2017-03-22T05:56:40.149Z,6.40
2017-03-22T05:57:38.406Z,6.50
2017-03-22T05:58:36.661Z,6.50
2017-03-22T05:59:34.974Z,6.50
2017-03-22T06:00:33.204Z,6.50
2017-03-22T06:01:31.469Z,6.50
2017-03-22T06:02:29.708Z,6.50
2017-03-22T06:03:27.939Z,6.60
2017-03-22T06:04:26.217Z,6.60
2017-03-22T06:05:24.432Z,6.60
2017-03-22T06:06:23.408Z,6.60
2017-03-22T06:07:21.679Z,6.60
2017-03-22T06:08:19.970Z,6.70
2017-03-22T06:09:18.203Z,6.70
2017-03-22T06:10:16.452Z,6.70
2017-03-22T06:11:14.691Z,6.70
2017-03-22T06:12:13.487Z,6.70
2017-03-22T06:13:11.714Z,6.70
2017-03-22T06:14:09.962Z,6.70
2017-03-22T06:15:08.218Z,6.70
2017-03-22T06:16:07.903Z,6.70
2017-03-22T06:17:06.890Z,6.80
2017-03-22T06:18:05.166Z,6.80
2017-03-22T06:19:04.364Z,6.80
2017-03-22T06:20:02.647Z,6.80
2017-03-22T06:21:00.877Z,6.80
2017-03-22T06:21:59.904Z,6.80
2017-03-22T06:22:58.197Z,6.80
2017-03-22T06:23:56.431Z,6.80
2017-03-22T06:24:54.681Z,6.80
2017-03-22T06:25:52.950Z,6.80
2017-03-22T06:26:51.180Z,6.80
2017-03-22T06:27:49.464Z,6.80
2017-03-22T06:28:47.717Z,6.80
2017-03-22T06:29:46.676Z,6.80
2017-03-22T06:30:44.860Z,6.80
2017-03-22T06:31:43.067Z,6.80
2017-03-22T06:32:41.261Z,6.80
2017-03-22T06:33:39.538Z,6.90
2017-03-22T06:34:37.761Z,6.90
2017-03-22T06:35:35.962Z,6.90
2017-03-22T06:36:34.186Z,6.90
2017-03-22T06:37:32.392Z,7.00
2017-03-22T06:38:30.585Z,6.90
2017-03-22T06:39:28.816Z,6.90
2017-03-22T06:40:27.773Z,6.90
2017-03-22T06:41:26.011Z,7.00
2017-03-22T06:42:24.957Z,7.00
2017-03-22T06:43:23.165Z,7.00
2017-03-22T06:44:21.391Z,7.00
2017-03-22T06:45:19.658Z,7.00
2017-03-22T06:46:17.877Z,7.00
2017-03-22T06:47:16.100Z,7.00
2017-03-22T06:48:14.322Z,7.00
2017-03-22T06:49:12.554Z,7.10
2017-03-22T06:50:11.481Z,7.00
2017-03-22T06:51:09.701Z,7.00
2017-03-22T06:52:08.654Z,7.00
2017-03-22T06:53:06.865Z,7.10
2017-03-22T06:54:05.131Z,7.10
2017-03-22T06:55:03.310Z,7.10
2017-03-22T06:56:01.532Z,7.10
2017-03-22T06:56:59.762Z,7.20
2017-03-22T06:57:57.985Z,7.20
2017-03-22T06:58:56.938Z,7.20
2017-03-22T06:59:55.189Z,7.20
2017-03-22T07:00:53.388Z,7.20
2017-03-22T07:01:51.595Z,7.30
2017-03-22T07:02:49.836Z,7.30
2017-03-22T07:03:48.053Z,7.30
2017-03-22T07:04:46.306Z,7.30
2017-03-22T07:05:44.513Z,7.30
2017-03-22T07:06:42.742Z,7.40
2017-03-22T07:07:40.970Z,7.40
2017-03-22T07:08:39.213Z,7.50
2017-03-22T07:09:37.436Z,7.50
2017-03-22T07:10:35.689Z,7.50
2017-03-22T07:11:33.920Z,7.50
2017-03-22T07:12:32.224Z,7.60
2017-03-22T07:13:30.609Z,7.60
2017-03-22T07:14:28.867Z,7.60
2017-03-22T07:15:27.070Z,7.70
2017-03-22T07:16:25.299Z,7.70
2017-03-22T07:17:23.553Z,7.70
2017-03-22T07:18:21.821Z,7.70
2017-03-22T07:19:20.062Z,7.80
2017-03-22T07:20:18.329Z,7.80
2017-03-22T07:21:16.551Z,7.80
2017-03-22T07:22:14.793Z,7.80
2017-03-22T07:23:13.020Z,7.80
2017-03-22T07:24:11.282Z,7.80
2017-03-22T07:25:09.649Z,7.90
2017-03-22T07:26:07.912Z,7.90
2017-03-22T07:27:06.120Z,7.90
2017-03-22T07:28:04.345Z,7.90
2017-03-22T07:29:02.594Z,7.90
2017-03-22T07:30:00.854Z,7.90
2017-03-22T07:30:59.864Z,7.90
2017-03-22T07:31:58.120Z,7.90
2017-03-22T07:32:56.363Z,7.90
2017-03-22T07:33:54.597Z,8.00
2017-03-22T07:34:52.849Z,8.00
2017-03-22T07:35:51.062Z,8.00
2017-03-22T07:36:50.273Z,8.00
2017-03-22T07:37:48.532Z,8.10
2017-03-22T07:38:46.766Z,8.10
2017-03-22T07:39:44.989Z,8.10
2017-03-22T07:40:43.197Z,8.10
2017-03-22T07:41:41.433Z,8.10
2017-03-22T07:42:39.631Z,8.10
2017-03-22T07:43:37.858Z,8.20
2017-03-22T07:44:36.089Z,8.10
2017-03-22T07:45:34.365Z,8.20
2017-03-22T07:46:32.634Z,8.20
2017-03-22T07:47:30.862Z,8.10
2017-03-22T07:48:29.825Z,8.10
2017-03-22T07:49:28.073Z,8.00
2017-03-22T07:50:26.321Z,8.00
2017-03-22T07:51:24.578Z,8.00
2017-03-22T07:52:22.825Z,8.00
2017-03-22T07:53:21.009Z,8.00
2017-03-22T07:54:19.240Z,8.10
2017-03-22T07:55:17.509Z,8.00
2017-03-22T07:56:16.476Z,8.00
2017-03-22T07:57:14.686Z,8.00
2017-03-22T07:58:12.918Z,8.00
2017-03-22T07:59:11.901Z,8.00
2017-03-22T08:00:10.120Z,8.00
2017-03-22T08:01:08.341Z,8.10
2017-03-22T08:02:06.557Z,8.10
2017-03-22T08:03:04.778Z,8.10
2017-03-22T08:04:03.004Z,8.10
2017-03-22T08:05:01.254Z,8.10
2017-03-22T08:05:59.485Z,8.10
2017-03-22T08:06:57.729Z,8.10
2017-03-22T08:07:57.889Z,8.10
2017-03-22T08:08:56.092Z,8.00
2017-03-22T08:09:54.277Z,8.10
2017-03-22T08:10:52.513Z,8.10
2017-03-22T08:11:50.708Z,8.10
2017-03-22T08:12:48.953Z,8.20
2017-03-22T08:13:47.170Z,8.30
2017-03-22T08:14:45.728Z,8.40
2017-03-22T08:15:43.953Z,8.40
2017-03-22T08:16:42.160Z,8.50
2017-03-22T08:17:41.119Z,8.50
2017-03-22T08:18:40.089Z,8.50
2017-03-22T08:19:38.334Z,8.60
2017-03-22T08:20:36.565Z,8.70
2017-03-22T08:21:34.805Z,8.70
2017-03-22T08:22:33.790Z,8.70
2017-03-22T08:23:31.982Z,8.70
2017-03-22T08:24:30.233Z,8.70
2017-03-22T08:25:28.479Z,8.70
2017-03-22T08:26:26.696Z,8.70
2017-03-22T08:27:24.929Z,8.80
2017-03-22T08:28:23.178Z,8.80
2017-03-22T08:29:21.413Z,8.80
2017-03-22T08:30:19.709Z,8.90
2017-03-22T08:31:18.693Z,8.90
2017-03-22T08:32:16.928Z,9.00
2017-03-22T08:33:15.163Z,9.00
2017-03-22T08:34:13.412Z,9.10
2017-03-22T08:35:11.646Z,9.20
2017-03-22T08:36:09.907Z,9.20
2017-03-22T08:37:08.895Z,9.30
2017-03-22T08:38:07.873Z,9.30
2017-03-22T08:39:06.138Z,9.40
2017-03-22T08:40:04.385Z,9.50
2017-03-22T08:41:03.337Z,9.50
2017-03-22T08:42:01.619Z,9.60
2017-03-22T08:42:59.865Z,9.60
2017-03-22T08:43:58.183Z,9.60
2017-03-22T08:44:56.416Z,9.60
2017-03-22T08:45:54.665Z,9.70
2017-03-22T08:46:52.948Z,9.70
2017-03-22T08:47:51.205Z,9.70
2017-03-22T08:48:49.413Z,9.70
2017-03-22T08:49:47.624Z,9.70
2017-03-22T08:50:46.249Z,9.70
2017-03-22T08:51:44.484Z,9.80
2017-03-22T08:52:42.717Z,9.80
2017-03-22T08:53:41.016Z,9.80
2017-03-22T08:54:39.313Z,9.90
2017-03-22T08:55:37.553Z,9.90
2017-03-22T08:56:35.781Z,9.90
2017-03-22T08:57:34.033Z,9.90
2017-03-22T08:58:33.000Z,9.90
2017-03-22T08:59:31.240Z,9.90
2017-03-22T09:00:29.517Z,10.00
2017-03-22T09:01:27.781Z,9.90
2017-03-22T09:02:26.494Z,9.90
2017-03-22T09:03:24.836Z,9.90
2017-03-22T09:04:23.097Z,9.90
2017-03-22T09:05:21.365Z,9.90
2017-03-22T09:06:19.598Z,9.90
2017-03-22T09:07:17.881Z,9.90
2017-03-22T09:08:16.137Z,9.90
2017-03-22T09:09:14.404Z,9.90
2017-03-22T09:10:12.729Z,10.00
2017-03-22T09:11:11.005Z,10.00
2017-03-22T09:12:09.673Z,10.10
2017-03-22T09:13:07.928Z,10.20
2017-03-22T09:14:06.912Z,10.20
2017-03-22T09:15:05.145Z,10.20
2017-03-22T09:16:03.409Z,10.30
2017-03-22T09:17:01.694Z,10.30
2017-03-22T09:18:00.013Z,10.20
2017-03-22T09:18:58.250Z,10.20
2017-03-22T09:19:56.556Z,10.30
2017-03-22T09:21:04.196Z,10.30
2017-03-22T09:22:02.493Z,10.20
2017-03-22T09:23:00.728Z,10.20
2017-03-22T09:23:59.704Z,10.20
2017-03-22T09:24:57.921Z,10.10
2017-03-22T09:25:56.179Z,10.10
2017-03-22T09:26:54.484Z,10.00
2017-03-22T09:27:53.512Z,10.10
2017-03-22T09:28:51.740Z,10.20
2017-03-22T09:29:49.949Z,10.20
2017-03-22T09:30:48.998Z,10.20
2017-03-22T09:31:47.205Z,10.30
2017-03-22T09:32:45.421Z,10.40
2017-03-22T09:33:43.648Z,10.40
2017-03-22T09:34:42.257Z,10.50
2017-03-22T09:35:40.457Z,10.50
2017-03-22T09:36:38.705Z,10.50
2017-03-22T09:37:37.720Z,10.60
2017-03-22T09:38:35.936Z,10.60
2017-03-22T09:39:34.162Z,10.60
2017-03-22T09:40:32.364Z,10.60
2017-03-22T09:41:30.593Z,10.60
2017-03-22T09:42:28.821Z,10.70
2017-03-22T09:43:27.757Z,10.70
2017-03-22T09:44:25.965Z,10.80
2017-03-22T09:45:24.189Z,10.80
2017-03-22T09:46:23.132Z,10.80
2017-03-22T09:47:21.324Z,10.80
2017-03-22T09:48:19.569Z,10.80
2017-03-22T09:49:17.757Z,10.90
2017-03-22T09:50:15.972Z,10.90
2017-03-22T09:51:14.318Z,11.00
2017-03-22T09:52:12.549Z,11.00
2017-03-22T09:53:10.756Z,11.00
2017-03-22T09:54:08.989Z,11.00
2017-03-22T09:55:07.221Z,11.00
2017-03-22T09:56:05.444Z,11.00
2017-03-22T09:57:03.764Z,11.00
2017-03-22T09:58:02.009Z,11.00
2017-03-22T09:59:00.245Z,11.00
2017-03-22T09:59:59.261Z,11.00
2017-03-22T10:00:57.800Z,11.00
2017-03-22T10:01:56.037Z,11.00
2017-03-22T10:02:54.313Z,11.00
2017-03-22T10:03:52.620Z,11.10
2017-03-22T10:04:51.601Z,11.10
2017-03-22T10:05:49.869Z,11.10
2017-03-22T10:06:48.106Z,11.10
2017-03-22T10:07:46.349Z,11.10
2017-03-22T10:08:44.582Z,11.10
2017-03-22T10:09:42.829Z,11.10
2017-03-22T10:10:41.064Z,11.20
2017-03-22T10:11:39.302Z,11.10
2017-03-22T10:12:37.534Z,11.10
2017-03-22T10:13:35.785Z,11.20
2017-03-22T10:14:34.816Z,11.20
2017-03-22T10:15:33.064Z,11.20
2017-03-22T10:16:31.518Z,11.20
2017-03-22T10:17:29.748Z,11.20
2017-03-22T10:18:27.980Z,11.20
2017-03-22T10:19:26.212Z,11.20
2017-03-22T10:20:24.444Z,11.30
2017-03-22T10:21:22.748Z,11.20
2017-03-22T10:22:21.045Z,11.20
2017-03-22T10:23:19.304Z,11.20
2017-03-22T10:24:17.541Z,11.20
2017-03-22T10:25:15.777Z,11.20
2017-03-22T10:26:14.092Z,11.10
2017-03-22T10:27:12.345Z,11.20
2017-03-22T10:28:10.574Z,11.20
2017-03-22T10:29:08.798Z,11.30
2017-03-22T10:30:07.029Z,11.40
2017-03-22T10:31:06.000Z,11.50
2017-03-22T10:32:04.233Z,11.60
2017-03-22T10:33:02.460Z,11.70
2017-03-22T10:34:00.677Z,11.80
2017-03-22T10:34:58.901Z,11.90
2017-03-22T10:35:57.129Z,12.00
2017-03-22T10:36:55.357Z,12.00
2017-03-22T10:37:53.580Z,12.10
2017-03-22T10:38:52.521Z,12.10
2017-03-22T10:39:50.792Z,12.20
2017-03-22T10:40:49.012Z,12.30
2017-03-22T10:41:47.221Z,12.30
2017-03-22T10:42:45.437Z,12.30
2017-03-22T10:43:43.686Z,12.30
2017-03-22T10:44:42.625Z,12.30
2017-03-22T10:45:41.561Z,12.30
2017-03-22T10:46:39.770Z,12.20
2017-03-22T10:47:38.037Z,12.10
2017-03-22T10:48:36.220Z,12.10
2017-03-22T10:49:34.424Z,12.20
2017-03-22T10:50:32.673Z,12.20
2017-03-22T10:51:30.898Z,12.20
2017-03-22T10:52:29.156Z,12.10
2017-03-22T10:53:27.389Z,12.10
2017-03-22T10:54:25.600Z,12.10
2017-03-22T10:55:23.812Z,12.10
2017-03-22T10:56:22.037Z,12.10
2017-03-22T10:57:20.270Z,12.10
2017-03-22T10:58:18.481Z,12.10
2017-03-22T10:59:16.700Z,12.20
2017-03-22T11:00:14.932Z,12.20
2017-03-22T11:01:13.177Z,12.20
2017-03-22T11:02:11.381Z,12.20
2017-03-22T11:03:09.606Z,12.20
2017-03-22T11:04:07.801Z,12.20
2017-03-22T11:05:06.028Z,12.30
2017-03-22T11:06:04.248Z,12.40
2017-03-22T11:07:02.473Z,12.40
2017-03-22T11:08:01.449Z,12.40
2017-03-22T11:08:59.698Z,12.40
2017-03-22T11:09:57.897Z,12.40
2017-03-22T11:10:56.115Z,12.40
2017-03-22T11:11:54.360Z,12.40
2017-03-22T11:12:52.576Z,12.40
2017-03-22T11:13:50.804Z,12.40
2017-03-22T11:14:49.010Z,12.30
2017-03-22T11:15:47.980Z,12.30
2017-03-22T11:16:46.230Z,12.30
2017-03-22T11:17:44.433Z,12.20
2017-03-22T11:18:43.896Z,12.20
2017-03-22T11:19:42.140Z,12.10
2017-03-22T11:20:40.336Z,12.00
2017-03-22T11:21:38.517Z,12.00
2017-03-22T11:22:37.474Z,11.90
2017-03-22T11:23:35.705Z,11.80
2017-03-22T11:24:33.936Z,11.70
2017-03-22T11:25:32.129Z,11.70
2017-03-22T11:26:30.344Z,11.60
2017-03-22T11:27:28.552Z,11.50
2017-03-22T11:28:26.729Z,11.50
2017-03-22T11:29:24.956Z,11.40
2017-03-22T11:30:23.189Z,11.40
2017-03-22T11:31:21.401Z,11.40
2017-03-22T11:32:19.632Z,11.30
2017-03-22T11:33:17.849Z,11.30
2017-03-22T11:34:16.801Z,11.30
2017-03-22T11:35:15.002Z,11.30
2017-03-22T11:36:13.613Z,11.30
2017-03-22T11:37:11.836Z,11.20
2017-03-22T11:38:10.197Z,11.30
2017-03-22T11:39:08.425Z,11.20
2017-03-22T11:40:06.629Z,11.20
2017-03-22T11:41:08.992Z,11.20
2017-03-22T11:42:07.225Z,11.20
2017-03-22T11:43:05.416Z,11.20
2017-03-22T11:44:03.647Z,11.10
2017-03-22T11:45:02.652Z,11.10
2017-03-22T11:46:00.877Z,11.10
2017-03-22T11:46:59.092Z,11.10
2017-03-22T11:47:57.321Z,11.10
2017-03-22T11:48:56.288Z,11.10
2017-03-22T11:49:54.493Z,11.00
2017-03-22T11:50:52.697Z,11.00
2017-03-22T11:51:50.896Z,11.00
2017-03-22T11:52:49.103Z,11.00
2017-03-22T11:53:47.334Z,11.00
2017-03-22T11:54:45.541Z,11.00
2017-03-22T11:55:43.776Z,11.00
2017-03-22T11:56:41.998Z,10.90
2017-03-22T11:57:40.706Z,10.90
2017-03-22T11:58:39.683Z,10.90
2017-03-22T11:59:37.933Z,11.00
2017-03-22T12:00:36.189Z,11.00
2017-03-22T12:01:34.480Z,11.00
2017-03-22T12:02:32.915Z,11.00
2017-03-22T12:03:31.116Z,11.00
2017-03-22T12:04:29.349Z,11.00
2017-03-22T12:05:27.584Z,11.00
2017-03-22T12:06:25.817Z,11.00
2017-03-22T12:07:24.025Z,11.00
2017-03-22T12:08:23.605Z,11.00
2017-03-22T12:09:21.861Z,11.00
2017-03-22T12:10:20.856Z,10.90
2017-03-22T12:11:19.150Z,10.90
2017-03-22T12:12:17.416Z,10.90
2017-03-22T12:13:15.645Z,10.90
2017-03-22T12:14:14.577Z,10.90
2017-03-22T12:15:12.820Z,10.90
2017-03-22T12:16:11.085Z,10.90
2017-03-22T12:17:09.352Z,10.90
2017-03-22T12:18:07.569Z,10.90
2017-03-22T12:19:06.536Z,10.90
2017-03-22T12:20:04.838Z,10.90
2017-03-22T12:21:03.068Z,10.90
2017-03-22T12:22:01.293Z,10.80
2017-03-22T12:22:59.524Z,10.80
2017-03-22T12:23:57.730Z,10.80
2017-03-22T12:24:55.944Z,10.80
2017-03-22T12:25:54.188Z,10.80
2017-03-22T12:26:52.393Z,10.80
2017-03-22T12:27:51.348Z,10.70
2017-03-22T12:28:49.581Z,10.80
2017-03-22T12:29:47.798Z,10.80
2017-03-22T12:30:45.999Z,10.70
2017-03-22T12:31:44.198Z,10.70
2017-03-22T12:32:42.417Z,10.70
2017-03-22T12:33:40.628Z,10.70
2017-03-22T12:35:39.101Z,10.70
2017-03-22T12:36:37.359Z,10.70
2017-03-22T12:37:35.564Z,10.70
2017-03-22T12:38:34.517Z,10.60
2017-03-22T12:39:32.780Z,10.60
2017-03-22T12:40:31.065Z,10.60
2017-03-22T12:41:29.312Z,10.60
2017-03-22T12:42:27.517Z,10.50
2017-03-22T12:43:25.764Z,10.50
2017-03-22T12:44:23.972Z,10.50
2017-03-22T12:45:22.907Z,10.50
2017-03-22T12:46:21.142Z,10.50
2017-03-22T12:47:19.358Z,10.50
2017-03-22T12:48:17.588Z,10.50
2017-03-22T12:49:15.812Z,10.50
2017-03-22T12:50:23.489Z,10.50